createdAt,value
2019-03-23T00:01:52.375Z,72.10
2019-03-23T00:06:56.120Z,71.70
2019-03-23T00:11:59.862Z,72.10
2019-03-23T00:17:03.620Z,72.10
2019-03-23T00:22:07.327Z,72.60
2019-03-23T00:27:11.342Z,72.40
2019-03-23T00:32:15.035Z,71.40
2019-03-23T00:37:18.990Z,72.80
2019-03-23T00:42:22.583Z,72.80
2019-03-23T00:47:26.523Z,71.50
2019-03-23T00:52:30.227Z,70.90
2019-03-23T00:57:33.810Z,71.40
2019-03-23T01:02:41.891Z,71.70
2019-03-23T01:07:45.568Z,72.80
2019-03-23T01:12:49.538Z,73.30
2019-03-23T01:17:53.130Z,72.80
2019-03-23T01:22:56.790Z,71.50
2019-03-23T01:28:00.531Z,71.70
2019-03-23T01:33:04.125Z,71.60
2019-03-23T01:38:07.736Z,71.80
2019-03-23T01:43:11.407Z,72.00
2019-03-23T01:48:15.004Z,72.10
2019-03-23T01:53:18.663Z,72.60
2019-03-23T01:58:22.261Z,71.50
2019-03-23T02:03:25.853Z,71.70
2019-03-23T02:08:29.450Z,71.70
2019-03-23T02:13:33.059Z,71.90
2019-03-23T02:18:36.667Z,73.30
2019-03-23T02:23:40.697Z,73.70
2019-03-23T02:28:44.295Z,73.80
2019-03-23T02:33:48.211Z,73.20
2019-03-23T02:38:51.819Z,74.30
2019-03-23T02:43:55.412Z,73.90
2019-03-23T02:48:59.008Z,73.10
2019-03-23T02:54:02.600Z,73.50
2019-03-23T02:59:06.199Z,74.60
2019-03-23T03:04:09.793Z,75.10
2019-03-23T03:09:13.397Z,75.60
2019-03-23T03:14:16.993Z,75.70
2019-03-23T03:19:20.772Z,77.30
2019-03-23T03:24:24.444Z,79.10
2019-03-23T03:29:28.025Z,77.80
2019-03-23T03:34:31.621Z,77.80
2019-03-23T03:44:31.237Z,76.70
2019-03-23T03:49:34.827Z,77.00
2019-03-23T03:54:38.732Z,76.00
2019-03-23T03:59:42.331Z,75.10
2019-03-23T04:04:45.926Z,74.00
2019-03-23T04:09:49.538Z,74.00
2019-03-23T04:14:53.197Z,75.90
2019-03-23T04:19:56.815Z,76.90
2019-03-23T04:25:00.647Z,77.00
2019-03-23T04:30:06.128Z,77.60
2019-03-23T04:35:09.781Z,78.80
2019-03-23T04:40:13.815Z,79.60
2019-03-23T04:45:17.669Z,79.80
2019-03-23T04:50:21.325Z,79.40
2019-03-23T04:55:25.396Z,78.90
2019-03-23T05:00:29.164Z,79.90
2019-03-23T05:05:32.758Z,79.90
2019-03-23T05:10:36.747Z,80.40
2019-03-23T05:15:40.674Z,79.50
2019-03-23T05:20:44.709Z,80.30
2019-03-23T05:25:48.313Z,81.30
2019-03-23T05:30:51.904Z,81.00
2019-03-23T05:35:55.492Z,81.30
2019-03-23T05:40:59.137Z,80.90
2019-03-23T05:46:02.730Z,81.90
2019-03-23T05:51:06.321Z,82.50
2019-03-23T05:56:09.924Z,81.70
2019-03-23T06:01:13.516Z,81.30
2019-03-23T06:06:36.438Z,82.10
2019-03-23T06:11:40.341Z,81.70
2019-03-23T06:16:43.929Z,82.30
2019-03-23T06:21:47.546Z,82.40
2019-03-23T06:26:51.129Z,81.90
2019-03-23T06:31:55.134Z,81.80
2019-03-23T06:36:58.733Z,80.50
2019-03-23T06:42:02.689Z,80.70
2019-03-23T06:47:06.283Z,81.30
2019-03-23T06:52:10.241Z,81.10
2019-03-23T06:57:14.302Z,81.70
2019-03-23T07:02:17.961Z,81.30
2019-03-23T07:07:21.553Z,79.70
2019-03-23T07:12:25.217Z,79.20
2019-03-23T07:17:28.807Z,77.60
2019-03-23T07:22:32.741Z,76.40
2019-03-23T07:27:36.756Z,74.70
2019-03-23T07:32:40.733Z,73.00
2019-03-23T07:37:44.826Z,71.50
2019-03-23T07:42:48.559Z,70.00
2019-03-23T07:47:52.179Z,68.10
2019-03-23T07:52:55.774Z,66.30
2019-03-23T07:57:59.360Z,64.70
2019-03-23T08:03:03.450Z,63.10
2019-03-23T08:08:07.339Z,63.20
2019-03-23T08:13:11.287Z,61.90
2019-03-23T08:18:15.437Z,60.10
2019-03-23T08:23:19.376Z,58.00
2019-03-23T08:28:23.042Z,56.20
2019-03-23T08:33:27.024Z,55.30
2019-03-23T08:38:30.623Z,54.70
2019-03-23T08:43:34.541Z,53.30
2019-03-23T08:48:38.237Z,52.10
2019-03-23T08:53:41.850Z,51.10
2019-03-23T08:58:44.372Z,50.30
2019-03-23T09:03:52.460Z,48.70
2019-03-23T09:08:53.220Z,47.40
2019-03-23T09:13:56.833Z,44.60
2019-03-23T09:19:00.661Z,44.50
2019-03-23T09:24:04.729Z,44.10
2019-03-23T09:29:10.178Z,43.50
2019-03-23T09:34:13.725Z,41.80
2019-03-23T09:39:17.326Z,41.10
2019-03-23T09:44:20.999Z,39.60
2019-03-23T09:49:24.603Z,38.60
2019-03-23T09:54:28.205Z,37.10
2019-03-23T09:59:31.801Z,35.70
2019-03-23T10:04:35.750Z,36.20
2019-03-23T10:09:39.708Z,34.90
2019-03-23T10:14:43.637Z,32.60
2019-03-23T10:19:47.532Z,33.10
2019-03-23T10:24:51.129Z,32.60
2019-03-23T10:29:54.721Z,31.70
2019-03-23T10:34:58.395Z,31.10
2019-03-23T10:40:02.021Z,30.00
2019-03-23T10:45:07.931Z,29.10
2019-03-23T10:50:13.062Z,29.90
2019-03-23T10:55:17.122Z,29.10
2019-03-23T11:00:20.793Z,28.70
2019-03-23T11:05:24.390Z,27.00
2019-03-23T11:10:27.989Z,27.20
2019-03-23T11:15:31.917Z,27.80
2019-03-23T11:20:35.517Z,26.90
2019-03-23T11:25:39.127Z,26.10
2019-03-23T11:30:42.825Z,25.90
2019-03-23T11:35:46.424Z,25.30
2019-03-23T11:40:54.950Z,23.60
2019-03-23T11:45:55.681Z,23.30
2019-03-23T11:50:59.279Z,23.70
2019-03-23T11:56:03.019Z,23.40
2019-03-23T12:01:07.869Z,22.00
2019-03-23T12:06:11.930Z,21.70
2019-03-23T12:11:15.514Z,20.80
2019-03-23T12:16:19.114Z,22.00
2019-03-23T12:21:22.783Z,21.10
2019-03-23T12:26:26.725Z,21.70
2019-03-23T12:31:30.335Z,21.70
2019-03-23T12:36:33.941Z,19.60
2019-03-23T12:41:37.604Z,21.00
2019-03-23T12:46:48.156Z,22.60
2019-03-23T12:51:47.050Z,21.90
2019-03-23T12:56:50.649Z,22.40
2019-03-23T13:01:54.370Z,22.80
2019-03-23T13:06:57.981Z,22.30
2019-03-23T13:12:01.576Z,23.10
2019-03-23T13:17:05.902Z,21.20
2019-03-23T13:22:23.560Z,21.10
2019-03-23T13:27:18.549Z,20.80
2019-03-23T13:32:22.153Z,19.50
2019-03-23T13:37:25.774Z,19.50
2019-03-23T13:42:29.371Z,19.90
2019-03-23T13:47:32.973Z,19.50
2019-03-23T13:52:36.983Z,19.20
2019-03-23T13:57:40.580Z,18.40
2019-03-23T14:02:44.513Z,17.70
2019-03-23T14:07:48.127Z,16.80
2019-03-23T14:12:51.727Z,17.20
2019-03-23T14:17:55.408Z,17.10
2019-03-23T14:23:02.932Z,17.90
2019-03-23T14:28:04.327Z,17.10
2019-03-23T14:33:07.927Z,18.10
2019-03-23T14:38:11.526Z,19.50
2019-03-23T14:43:15.145Z,19.00
2019-03-23T14:48:19.311Z,20.30
2019-03-23T14:53:23.005Z,19.60
2019-03-23T14:58:26.609Z,20.30
2019-03-23T15:03:30.213Z,20.10
2019-03-23T15:08:33.822Z,18.60
2019-03-23T15:13:37.481Z,20.70
2019-03-23T15:18:41.085Z,20.90
2019-03-23T15:23:44.703Z,21.50
2019-03-23T15:28:48.292Z,22.00
2019-03-23T15:33:51.890Z,22.60
2019-03-23T15:38:55.483Z,23.50
2019-03-23T15:43:59.095Z,24.60
2019-03-23T15:49:02.691Z,25.20
2019-03-23T15:54:06.463Z,26.20
2019-03-23T15:59:10.027Z,27.50
2019-03-23T16:04:13.639Z,28.00
2019-03-23T16:09:17.564Z,28.10
2019-03-23T16:14:21.161Z,27.70
2019-03-23T16:19:24.845Z,27.70
2019-03-23T16:24:28.946Z,28.20
2019-03-23T16:29:32.557Z,27.10
2019-03-23T16:34:36.138Z,28.70
2019-03-23T16:39:39.725Z,29.10
2019-03-23T16:44:43.734Z,29.20
2019-03-23T16:49:47.337Z,30.40
2019-03-23T16:54:50.943Z,31.40
2019-03-23T16:59:54.537Z,32.20
2019-03-23T17:04:58.178Z,33.30
2019-03-23T17:10:03.409Z,34.10
2019-03-23T17:15:10.256Z,34.50
2019-03-23T17:20:14.316Z,35.80
2019-03-23T17:25:17.986Z,36.00
2019-03-23T17:30:22.037Z,36.30
2019-03-23T17:35:26.038Z,37.70
2019-03-23T17:40:29.757Z,38.60
2019-03-23T17:45:33.772Z,39.90
2019-03-23T17:50:37.439Z,41.60
2019-03-23T17:55:41.138Z,43.80
2019-03-23T18:00:45.207Z,46.60
2019-03-23T18:05:48.881Z,47.80
2019-03-23T18:10:52.492Z,50.00
2019-03-23T18:15:56.895Z,51.30
2019-03-23T18:21:00.633Z,52.70
2019-03-23T18:26:04.637Z,54.30
2019-03-23T18:31:08.229Z,54.50
2019-03-23T18:36:11.904Z,55.50
2019-03-23T18:41:15.629Z,56.40
2019-03-23T18:46:19.230Z,56.90
2019-03-23T18:51:23.305Z,58.50
2019-03-23T18:56:26.906Z,59.30
2019-03-23T19:01:30.514Z,59.10
2019-03-23T19:06:34.114Z,59.60
2019-03-23T19:11:37.783Z,59.50
2019-03-23T19:16:41.839Z,59.60
2019-03-23T19:21:45.852Z,59.10
2019-03-23T19:26:49.760Z,60.30
2019-03-23T19:31:53.719Z,62.90
2019-03-23T19:36:57.335Z,63.00
2019-03-23T19:42:01.021Z,63.60
2019-03-23T19:47:04.793Z,62.90
2019-03-23T19:52:08.412Z,61.90
2019-03-23T19:57:12.013Z,62.10
2019-03-23T20:02:15.628Z,63.90
2019-03-23T20:07:19.289Z,65.10
2019-03-23T20:12:22.913Z,65.10
2019-03-23T20:17:26.496Z,65.40
2019-03-23T20:22:30.486Z,65.60
2019-03-23T20:27:34.142Z,65.10
2019-03-23T20:32:37.851Z,65.90
2019-03-23T20:37:41.923Z,65.10
2019-03-23T20:42:45.525Z,65.80
2019-03-23T20:47:49.725Z,66.50
2019-03-23T20:52:53.606Z,68.00
2019-03-23T20:57:57.355Z,68.50
2019-03-23T21:03:01.085Z,68.60
2019-03-23T21:08:04.859Z,68.90
2019-03-23T21:13:08.484Z,69.80
2019-03-23T21:18:12.215Z,70.10
2019-03-23T21:23:16.197Z,70.20
2019-03-23T21:28:19.857Z,71.70
2019-03-23T21:33:23.478Z,71.00
2019-03-23T21:38:27.094Z,71.20
2019-03-23T21:43:31.097Z,73.40
2019-03-23T21:48:34.774Z,73.30
2019-03-23T21:53:38.885Z,71.80
2019-03-23T21:58:42.545Z,71.60
2019-03-23T22:03:46.207Z,74.30
2019-03-23T22:08:49.873Z,73.80
2019-03-23T22:13:53.459Z,73.20
2019-03-23T22:18:57.483Z,73.80
2019-03-23T22:24:01.081Z,73.60
2019-03-23T22:29:04.808Z,74.70
2019-03-23T22:34:08.864Z,73.70
2019-03-23T22:39:12.450Z,73.30
2019-03-23T22:44:16.404Z,74.10
2019-03-23T22:49:20.001Z,74.20
2019-03-23T22:54:23.589Z,73.90
2019-03-23T22:59:27.184Z,73.60
2019-03-23T23:04:31.177Z,74.00
2019-03-23T23:09:34.777Z,75.00
2019-03-23T23:14:38.365Z,76.40
2019-03-23T23:19:41.962Z,76.70
2019-03-23T23:24:45.585Z,76.40
2019-03-23T23:29:49.188Z,76.60
2019-03-23T23:34:52.786Z,76.60
2019-03-23T23:39:56.377Z,75.90
2019-03-23T23:44:59.977Z,76.80
2019-03-23T23:50:04.996Z,77.10
2019-03-23T23:55:09.034Z,77.30
